Time,TemperatureF,DewpointF,PressureIn,WindDirection,WindDirectionDegrees,WindSpeedMPH,WindSpeedGustMPH,Humidity,HourlyPrecipIn,Conditions,Clouds,dailyrainin,SoftwareType,DateUTC
2013-04-15 08:57:00,54.3,45.0,29.72,South,186,4.0,15.0,71,0.00,,,0.05,weatherlink.com 1.10,2013-04-15 07:57:00,
2013-04-15 09:16:00,54.9,45.0,29.74,WNW,293,8.0,17.0,69,0.00,,,0.05,weatherlink.com 1.10,2013-04-15 08:16:00,
2013-04-15 09:31:00,55.5,45.0,29.74,NW,316,4.0,20.0,68,0.00,,,0.05,weatherlink.com 1.10,2013-04-15 08:31:00,
2013-04-15 09:46:00,55.5,45.0,29.75,WSW,247,4.0,15.0,68,0.00,,,0.05,weatherlink.com 1.10,2013-04-15 08:46:00,
2013-04-15 10:01:00,56.0,45.0,29.74,SSW,202,10.0,14.0,66,0.00,,,0.05,weatherlink.com 1.10,2013-04-15 09:01:00,
2013-04-15 10:16:00,56.2,44.0,29.75,West,269,3.0,13.0,65,0.00,,,0.05,weatherlink.com 1.10,2013-04-15 09:16:00,
2013-04-15 10:46:00,57.2,45.0,29.75,WNW,301,10.0,15.0,63,0.00,,,0.05,weatherlink.com 1.10,2013-04-15 09:46:00,
2013-04-15 11:01:00,57.8,45.0,29.75,WNW,288,5.0,15.0,62,0.00,,,0.05,weatherlink.com 1.10,2013-04-15 10:01:00,
2013-04-15 11:31:00,57.9,43.0,29.76,WSW,243,6.0,23.0,59,0.00,,,0.05,weatherlink.com 1.10,2013-04-15 10:31:00,
2013-04-15 11:46:00,58.1,44.0,29.77,SSE,148,7.0,15.0,60,0.00,,,0.05,weatherlink.com 1.10,2013-04-15 10:46:00,
2013-04-15 12:02:00,58.5,44.0,29.78,WNW,293,5.0,13.0,59,0.00,,,0.05,weatherlink.com 1.10,2013-04-15 11:02:00,
2013-04-15 12:16:00,58.3,43.0,29.77,West,264,5.0,14.0,58,0.00,,,0.05,weatherlink.com 1.10,2013-04-15 11:16:00,
2013-04-15 12:31:00,58.9,42.0,29.77,ENE,58,6.0,16.0,54,0.00,,,0.05,weatherlink.com 1.10,2013-04-15 11:31:00,
2013-04-15 12:46:00,58.6,41.0,29.77,WNW,284,5.0,13.0,53,0.00,,,0.05,weatherlink.com 1.10,2013-04-15 11:46:00,
2013-04-15 13:02:00,59.1,40.0,29.77,West,265,8.0,22.0,49,0.00,,,0.05,weatherlink.com 1.10,2013-04-15 12:02:00,
2013-04-15 13:16:00,59.3,41.0,29.77,WSW,255,10.0,19.0,51,0.00,,,0.05,weatherlink.com 1.10,2013-04-15 12:16:00,
2013-04-15 13:32:00,60.4,41.0,29.77,SW,233,3.0,13.0,50,0.00,,,0.05,weatherlink.com 1.10,2013-04-15 12:32:00,
2013-04-15 13:47:00,60.3,41.0,29.76,West,269,4.0,16.0,49,0.00,,,0.05,weatherlink.com 1.10,2013-04-15 12:47:00,
2013-04-15 14:02:00,60.9,41.0,29.75,WSW,256,8.0,14.0,49,0.00,,,0.05,weatherlink.com 1.10,2013-04-15 13:02:00,
2013-04-15 14:17:00,61.3,41.0,29.75,WSW,247,2.0,10.0,48,0.00,,,0.05,weatherlink.com 1.10,2013-04-15 13:17:00,
2013-04-15 14:47:00,61.8,42.0,29.74,SSE,163,4.0,12.0,48,0.00,,,0.05,weatherlink.com 1.10,2013-04-15 13:47:00,
2013-04-15 15:01:00,62.3,41.0,29.74,South,184,7.0,14.0,46,0.00,,,0.05,weatherlink.com 1.10,2013-04-15 14:01:00,
2013-04-15 15:17:00,61.0,40.0,29.74,SSE,166,5.0,11.0,46,0.00,,,0.05,weatherlink.com 1.10,2013-04-15 14:17:00,
2013-04-15 15:47:00,60.4,41.0,29.72,North,356,3.0,16.0,50,0.00,,,0.05,weatherlink.com 1.10,2013-04-15 14:47:00,
2013-04-15 16:02:00,60.5,42.0,29.71,ESE,103,6.0,15.0,50,0.00,,,0.05,weatherlink.com 1.10,2013-04-15 15:02:00,
2013-04-15 16:17:00,60.5,43.0,29.72,SSW,212,3.0,12.0,53,0.00,,,0.05,weatherlink.com 1.10,2013-04-15 15:17:00,
2013-04-15 16:32:00,59.6,41.0,29.72,WSW,237,5.0,15.0,51,0.00,,,0.05,weatherlink.com 1.10,2013-04-15 15:32:00,
2013-04-15 16:47:00,59.0,43.0,29.72,SSW,201,1.0,14.0,55,0.00,,,0.05,weatherlink.com 1.10,2013-04-15 15:47:00,
2013-04-15 17:02:00,58.4,42.0,29.71,SW,222,3.0,13.0,55,0.00,,,0.05,weatherlink.com 1.10,2013-04-15 16:02:00,
2013-04-15 17:47:00,56.3,44.0,29.69,SE,135,4.0,15.0,63,0.00,,,0.05,weatherlink.com 1.10,2013-04-15 16:47:00,
2013-04-15 18:02:00,56.2,43.0,29.69,WNW,295,4.0,12.0,61,0.00,,,0.05,weatherlink.com 1.10,2013-04-15 17:02:00,
2013-04-15 18:17:00,55.6,43.0,29.68,WSW,237,3.0,12.0,64,0.00,,,0.05,weatherlink.com 1.10,2013-04-15 17:17:00,
2013-04-15 18:32:00,54.9,46.0,29.68,WSW,238,6.0,11.0,71,0.00,,,0.05,weatherlink.com 1.10,2013-04-15 17:32:00,
2013-04-15 18:47:00,53.3,47.0,29.67,SE,136,4.0,9.0,78,0.00,,,0.05,weatherlink.com 1.10,2013-04-15 17:47:00,
2013-04-15 19:02:00,51.9,47.0,29.66,SSE,150,4.0,7.0,83,0.02,,,0.00,weatherlink.com 1.10,2013-04-15 18:02:00,
2013-04-15 19:32:00,50.6,47.0,29.64,WSW,243,6.0,10.0,88,0.02,,,0.00,weatherlink.com 1.10,2013-04-15 18:32:00,
2013-04-15 19:47:00,51.4,46.0,29.64,WNW,297,1.0,12.0,83,0.02,,,0.00,weatherlink.com 1.10,2013-04-15 18:47:00,
2013-04-15 20:02:00,52.1,45.0,29.64,SE,131,6.0,10.0,77,0.01,,,0.01,weatherlink.com 1.10,2013-04-15 19:02:00,
2013-04-15 20:17:00,52.0,44.0,29.64,SE,136,6.0,12.0,74,0.01,,,0.01,weatherlink.com 1.10,2013-04-15 19:17:00,
2013-04-15 20:32:00,51.5,43.0,29.62,WSW,243,3.0,11.0,74,0.01,,,0.01,weatherlink.com 1.10,2013-04-15 19:32:00,
2013-04-15 20:47:00,51.0,44.0,29.61,ESE,121,4.0,11.0,77,0.01,,,0.01,weatherlink.com 1.10,2013-04-15 19:47:00,
2013-04-15 21:02:00,50.9,44.0,29.59,SE,134,8.0,8.0,77,0.00,,,0.01,weatherlink.com 1.10,2013-04-15 20:02:00,
2013-04-15 21:17:00,51.0,44.0,29.59,SSE,150,8.0,9.0,77,0.00,,,0.01,weatherlink.com 1.10,2013-04-15 20:17:00,
2013-04-15 21:32:00,50.9,44.0,29.58,ESE,112,1.0,10.0,77,0.00,,,0.01,weatherlink.com 1.10,2013-04-15 20:32:00,
2013-04-15 21:47:00,50.4,45.0,29.56,SE,143,5.0,11.0,81,0.00,,,0.01,weatherlink.com 1.10,2013-04-15 20:47:00,
2013-04-15 22:02:00,49.9,45.0,29.54,ESE,118,9.0,11.0,83,0.00,,,0.01,weatherlink.com 1.10,2013-04-15 21:02:00,
2013-04-15 22:18:00,49.5,45.0,29.53,SSE,163,2.0,14.0,85,0.00,,,0.01,weatherlink.com 1.10,2013-04-15 21:18:00,
2013-04-15 22:33:00,49.5,46.0,29.52,SSE,148,5.0,17.0,88,0.00,,,0.01,weatherlink.com 1.10,2013-04-15 21:33:00,
2013-04-15 22:48:00,49.7,46.0,29.51,SE,145,3.0,11.0,88,0.00,,,0.01,weatherlink.com 1.10,2013-04-15 21:48:00,
2013-04-15 23:03:00,50.8,47.0,29.49,South,179,6.0,8.0,86,0.00,,,0.01,weatherlink.com 1.10,2013-04-15 22:03:00,
2013-04-15 23:18:00,53.0,46.0,29.49,East,90,2.0,14.0,77,0.00,,,0.01,weatherlink.com 1.10,2013-04-15 22:18:00,
2013-04-15 23:33:00,53.6,45.0,29.49,ESE,122,4.0,11.0,73,0.00,,,0.01,weatherlink.com 1.10,2013-04-15 22:33:00,
2013-04-15 23:48:00,53.3,46.0,29.48,West,278,12.0,21.0,75,0.01,,,0.02,weatherlink.com 1.10,2013-04-15 22:48:00,